Thursday, March 23, 2017, 12:20 AM EDT

KFYJ, West Point, Middle Peninsula Regional Airport

Location: Shacklefords, VA, United States Lat: 37.521
Local Time: 12:20 AM EDT ( 4:20 GMT) Lon: -76.764
Time Zone: US/Eastern Elev: 22 ft

Show me the last for .
Show Decoded

2017-03-22 23:55 METAR KFYJ 230355Z AUTO 36003KT 10SM CLR 03/M12 A3048 RMK AO2 T00291125 =
2017-03-22 23:35 METAR KFYJ 230335Z AUTO 00000KT 10SM CLR 03/M12 A3047 RMK AO2 T00321124 =
2017-03-22 23:15 METAR KFYJ 230315Z AUTO 36003KT 10SM CLR 04/M12 A3046 RMK AO2 T00361123 =
2017-03-22 22:55 METAR KFYJ 230255Z AUTO 01003KT 10SM CLR 04/M13 A3045 RMK AO2 T00381127 =
2017-03-22 22:35 METAR KFYJ 230235Z AUTO 01005KT 10SM CLR 04/M13 A3044 RMK AO2 T00421129 =
2017-03-22 22:15 METAR KFYJ 230215Z AUTO 01004KT 10SM CLR 05/M13 A3044 RMK AO2 T00451135 =
2017-03-22 21:55 METAR KFYJ 230155Z AUTO 01003KT 10SM CLR 05/M14 A3044 RMK AO2 T00501145 =
2017-03-22 21:35 METAR KFYJ 230135Z AUTO 04003KT 10SM CLR 05/M14 A3043 RMK AO2 T00501139 =
2017-03-22 21:15 METAR KFYJ 230115Z AUTO 00000KT 10SM CLR 05/M13 A3042 RMK AO2 T00531135 =
2017-03-22 20:55 METAR KFYJ 230055Z AUTO 34005KT 10SM CLR 06/M13 A3041 RMK AO2 T00591135 =
2017-03-22 20:35 METAR KFYJ 230035Z AUTO 01006KT 10SM CLR 07/M14 A3039 RMK AO2 T00651137 =
2017-03-22 20:15 METAR KFYJ 230015Z AUTO 35006KT 10SM CLR 07/M13 A3038 RMK AO2 T00651135 =
2017-03-22 19:55 METAR KFYJ 222355Z AUTO 34005KT 10SM CLR 07/M14 A3036 RMK AO2 T00701142 10105
                 20070 =
2017-03-22 19:35 METAR KFYJ 222335Z AUTO 35007KT 10SM CLR 07/M15 A3035 RMK AO2 T00721147 =
2017-03-22 19:15 METAR KFYJ 222315Z AUTO 35007KT 10SM CLR 08/M15 A3034 RMK AO2 T00771146 =
2017-03-22 18:55 METAR KFYJ 222255Z AUTO 35006KT 10SM CLR 08/M15 A3033 RMK AO2 T00841146 =
2017-03-22 18:35 METAR KFYJ 222235Z AUTO 33007KT 300V010 10SM CLR 09/M15 A3032 RMK AO2 T00881149
                 =
2017-03-22 18:15 METAR KFYJ 222215Z AUTO 35008G16KT 10SM CLR 09/M15 A3031 RMK AO2 T00931146 =
2017-03-22 17:55 METAR KFYJ 222155Z AUTO 33009G19KT 310V010 10SM CLR 10/M13 A3030 RMK AO2
                 T00951135 =
2017-03-22 17:35 METAR KFYJ 222135Z AUTO 32009G18KT 10SM CLR 10/M13 A3029 RMK AO2 T00971130 =
2017-03-22 17:15 METAR KFYJ 222115Z AUTO 32009G19KT 300V010 10SM CLR 10/M13 A3028 RMK AO2
                 T00961135 =
2017-03-22 16:55 METAR KFYJ 222055Z AUTO 35009G22KT 320V020 10SM CLR 10/M14 A3028 RMK AO2
                 T00961139 =
2017-03-22 16:35 METAR KFYJ 222035Z AUTO 32009G17KT 290V350 10SM CLR 10/M12 A3027 RMK AO2
                 T01001122 =
2017-03-22 16:15 METAR KFYJ 222015Z AUTO 36010G16KT 320V020 10SM CLR 10/M12 A3027 RMK AO2
                 T00971123 =
2017-03-22 15:55 METAR KFYJ 221955Z AUTO 34011G21KT 10SM CLR 10/M12 A3026 RMK AO2 T00951120 =
2017-03-22 15:35 METAR KFYJ 221935Z AUTO 33010G20KT 10SM CLR 10/M12 A3026 RMK AO2 T00961119 =
2017-03-22 15:15 METAR KFYJ 221915Z AUTO 34010G20KT 10SM CLR 11/M11 A3026 RMK AO2 T01051109 =
2017-03-22 14:55 METAR KFYJ 221855Z AUTO 33010G16KT 280V360 10SM CLR 10/M11 A3025 RMK AO2
                 T01021106 =
2017-03-22 14:35 METAR KFYJ 221835Z AUTO 34009G19KT 10SM CLR 10/M12 A3024 RMK AO2 T01001120 =
2017-03-22 14:15 METAR KFYJ 221815Z AUTO 33011G26KT 300V010 10SM CLR 10/M13 A3024 RMK AO2
                 T00961127 =
2017-03-22 13:55 METAR KFYJ 221755Z AUTO 35009G19KT 310V030 10SM CLR 10/M12 A3025 RMK AO2
                 T01011117 10120 20085 =
2017-03-22 13:35 METAR KFYJ 221735Z AUTO 35013G21KT 10SM CLR 09/M13 A3025 RMK AO2 T00931126 =
2017-03-22 13:10 METAR KFYJ 221710Z AUTO 32014G19KT 290V010 10SM CLR 10/M10 A3024 RMK AO2
                 T00951098 =
2017-03-22 12:55 METAR KFYJ 221655Z AUTO 31012G17KT 10SM CLR 09/M09 A3024 RMK AO2 T00931095 =
2017-03-22 12:35 METAR KFYJ 221635Z AUTO 34010G16KT 10SM CLR 09/M12 A3024 RMK AO2 T00921116 =
2017-03-22 12:15 METAR KFYJ 221615Z AUTO 33009G20KT 290V010 10SM CLR 09/M10 A3023 RMK AO2
                 T00911105 =
2017-03-22 11:55 METAR KFYJ 221555Z AUTO 36011G18KT 330V030 10SM CLR 09/M10 A3022 RMK AO2
                 T00901100 =
2017-03-22 11:35 METAR KFYJ 221535Z AUTO 34014G22KT 10SM CLR 09/M10 A3022 RMK AO2 T00901099 =
2017-03-22 11:15 METAR KFYJ 221515Z AUTO 35013G19KT 320V030 10SM CLR 09/M06 A3021 RMK AO2
                 T00911065 =
2017-03-22 10:50 METAR KFYJ 221450Z AUTO 33011G21KT 300V010 10SM CLR 09/M06 A3019 RMK AO2
                 T00901058 =
2017-03-22 10:35 METAR KFYJ 221435Z AUTO 32011G21KT 290V350 10SM CLR 09/M05 A3019 RMK AO2
                 T00901054 =
2017-03-22 10:15 METAR KFYJ 221415Z AUTO 32013G21KT 10SM CLR 09/M06 A3016 RMK AO2 T00931056 =
2017-03-22 09:55 METAR KFYJ 221355Z AUTO 33013G24KT 290V360 10SM CLR 09/M05 A3014 RMK AO2
                 T00941047 =
2017-03-22 09:35 METAR KFYJ 221335Z AUTO 32011G20KT 280V340 10SM CLR 10/M03 A3012 RMK AO2
                 T00951032 =
2017-03-22 09:15 METAR KFYJ 221315Z AUTO 35014G27KT 10SM SCT070 09/M04 A3011 RMK AO2 T00901037 =
2017-03-22 08:55 METAR KFYJ 221255Z AUTO 34015G25KT 10SM CLR 10/M03 A3008 RMK AO2 T01041030 =
2017-03-22 08:35 METAR KFYJ 221235Z AUTO 35014G23KT 10SM SCT120 11/M02 A3006 RMK AO2 T01111025 =
2017-03-22 08:15 METAR KFYJ 221215Z AUTO 34014G22KT 300V010 10SM BKN120 12/00 A3003 RMK AO2
                 T01151001 =
2017-03-22 07:55 METAR KFYJ 221155Z AUTO 34008G14KT 300V020 10SM BKN110 12/03 A3002 RMK AO2
                 T01170027 10117 20095 =
2017-03-22 07:35 METAR KFYJ 221135Z AUTO 34005KT 10SM BKN110 10/06 A3000 RMK AO2 T01030061 =
2017-03-22 07:15 METAR KFYJ 221115Z AUTO 34003KT 10SM SCT080 OVC120 10/07 A2999 RMK AO2 T01030068
                 =
2017-03-22 06:55 METAR KFYJ 221055Z AUTO 33003KT 10SM OVC120 10/07 A2998 RMK AO2 T01020070 =
2017-03-22 06:35 METAR KFYJ 221035Z AUTO 33004KT 10SM BKN120 10/07 A2998 RMK AO2 T01000070 =
2017-03-22 06:15 METAR KFYJ 221015Z AUTO 00000KT 10SM SCT060 SCT080 SCT120 10/07 A2997 RMK AO2
                 T01000068 =
2017-03-22 05:55 METAR KFYJ 220955Z AUTO 00000KT 10SM SCT060 BKN080 10/07 A2996 RMK AO2 T01020070
                 =
2017-03-22 05:35 METAR KFYJ 220935Z AUTO 00000KT 10SM SCT060 SCT080 BKN110 10/07 A2996 RMK AO2
                 T01020068 =
2017-03-22 05:15 METAR KFYJ 220915Z AUTO 29003KT 10SM SCT060 BKN080 OVC110 10/07 A2996 RMK AO2
                 T01020069 =
2017-03-22 04:55 METAR KFYJ 220855Z AUTO 00000KT 10SM BKN060 OVC110 10/07 A2996 RMK AO2 T01010066
                 =
2017-03-22 04:35 METAR KFYJ 220835Z AUTO 00000KT 10SM BKN060 OVC110 10/07 A2994 RMK AO2 T01010065
                 =
2017-03-22 04:15 METAR KFYJ 220815Z AUTO 00000KT 10SM OVC050 10/06 A2994 RMK AO2 T01030062 =
2017-03-22 03:55 METAR KFYJ 220755Z AUTO 00000KT 10SM OVC050 11/06 A2994 RMK AO2 T01050063 =
2017-03-22 03:35 METAR KFYJ 220735Z AUTO 00000KT 10SM OVC050 10/07 A2995 RMK AO2 T01030065 =
2017-03-22 03:15 METAR KFYJ 220715Z AUTO 22003KT 10SM BKN050 OVC110 10/06 A2995 RMK AO2 T01000063
                 =
2017-03-22 02:55 METAR KFYJ 220655Z AUTO 00000KT 10SM OVC050 10/06 A2994 RMK AO2 T01000062 =
2017-03-22 02:35 METAR KFYJ 220635Z AUTO 00000KT 10SM OVC050 10/06 A2993 RMK AO2 T00970062 =
2017-03-22 02:15 METAR KFYJ 220615Z AUTO 00000KT 10SM OVC050 10/07 A2994 RMK AO2 T00970066 =
2017-03-22 01:55 METAR KFYJ 220555Z AUTO 00000KT 10SM OVC050 10/05 A2994 RMK AO2 T01010053 10124
                 20084 401850080 =
2017-03-22 01:35 METAR KFYJ 220535Z AUTO 00000KT 10SM SCT050 SCT060 10/06 A2995 RMK AO2 T01000055
                 =
2017-03-22 01:15 METAR KFYJ 220515Z AUTO 00000KT 10SM BKN060 10/06 A2995 RMK AO2 T01010056 =
2017-03-22 00:55 METAR KFYJ 220455Z AUTO 00000KT 10SM BKN050 OVC065 10/06 A2995 RMK AO2 T01010055
                 =
2017-03-22 00:35 METAR KFYJ 220435Z AUTO 00000KT 10SM OVC050 10/06 A2996 RMK AO2 T01010055 =

Support USWX by starting your Amazon purchase here.